CNW3 weather

Bancroft Airport
Bancroft, Ontario, Canada

Public forecast

Using degrees Celsius for public forecast. Weather courtesy of forecast.io.

METAR (pilot weather report)

Closest report is Peterborough Airport, 54.7 nm (101.2 km) SSW. Retrieved 2019/05/20 16:00 UTC (21 minutes ago):

CYPQ 201600Z AUTO 27019G27KT 9SM BKN042 OVC050 18/10 A2968 RMK SLP052 DENSITY ALT 1400FT

TAF (pilot weather forecast)

Closest forecast is Peterborough Airport, 54.7 nm (101.2 km) SSW. Retrieved 2019/05/20 14:39 UTC (2 hours ago):

TAF CYPQ 201338Z 2014/2102 24012KT P6SM BKN040 BECMG 2015/2017 25015G30KT FM210000 30015G25KT P6SM OVC025 RMK FCST BASED ON AUTO OBS. NXT FCST BY 202000Z